Terminal Aerodrome Forecast
Issued by NWS Cleveland, OH

Home | Current Version | Previous Version | Graphics & Text | Print | Product List | Glossary On
Versions: 1 2 3 4 5 6 7 8 9 10 11 12 13 14 15 16 17 18
000
FTUS41 KCLE 191100
TAFMFD
TAF
KMFD 191120Z 1912/2012 16003KT 4SM -SHRA BR BKN020 OVC040
     FM191500 15004KT 4SM -SHRA BR BKN035 OVC050
     FM191900 16004KT P6SM BKN050
     FM200600 00000KT 5SM BR SCT010 BKN025=

USA.gov is the U.S. government's official web portal to all federal, state and local government web resources and services.